Time;durP1;ratioP1;P1;durP2;ratioP2;P2;SDS_P1;SDS_P2;PMS_P1;PMS_P2;Temp;Humidity;BMP_temperature;BMP_pressure;BME280_temperature;BME280_humidity;BME280_pressure;Samples;Min_cycle;Max_cycle;Signal;HPM_P1;HPM_P2
2021/04/16 00:01:09;;;;;;;1.30;0.70;;;20.50;39.90;;;;;;5010422;28;20417;-72
2021/04/16 00:03:35;;;;;;;0.60;0.60;;;20.50;40.00;;;;;;5000428;28;20450;-73
2021/04/16 00:06:01;;;;;;;0.80;0.50;;;20.50;39.70;;;;;;5006299;28;20426;-76
2021/04/16 00:08:30;;;;;;;0.50;0.50;;;20.60;40.00;;;;;;5010239;28;20437;-73
2021/04/16 00:10:58;;;;;;;0.60;0.60;;;20.60;39.80;;;;;;4992674;28;20425;-73
2021/04/16 00:13:24;;;;;;;1.20;0.50;;;20.60;39.80;;;;;;4988685;28;20986;-73
2021/04/16 00:15:50;;;;;;;0.50;0.50;;;20.60;39.80;;;;;;5012695;28;20417;-71
2021/04/16 00:18:19;;;;;;;0.68;0.68;;;20.60;39.70;;;;;;5009216;28;20423;-72
2021/04/16 00:20:45;;;;;;;0.65;0.63;;;20.70;39.80;;;;;;4975916;28;20412;-72
2021/04/16 00:23:12;;;;;;;0.60;0.60;;;20.60;39.60;;;;;;5007264;28;20413;-73
2021/04/16 00:25:39;;;;;;;0.60;0.60;;;20.60;39.60;;;;;;5010632;28;20469;-71
2021/04/16 00:28:06;;;;;;;3.92;0.55;;;20.60;39.60;;;;;;5012603;28;20857;-72
2021/04/16 00:30:33;;;;;;;0.80;0.60;;;20.60;39.50;;;;;;5007609;28;20475;-72
2021/04/16 00:32:59;;;;;;;0.80;0.50;;;20.60;39.70;;;;;;5003236;28;20786;-73
2021/04/16 00:35:26;;;;;;;0.80;0.80;;;20.50;39.60;;;;;;4997596;28;20940;-72
2021/04/16 00:37:52;;;;;;;0.80;0.70;;;20.50;39.70;;;;;;5004203;28;20406;-71
2021/04/16 00:40:20;;;;;;;0.50;0.50;;;20.50;39.80;;;;;;5006115;28;21041;-71
2021/04/16 00:42:52;;;;;;;0.80;0.70;;;20.50;39.70;;;;;;5002293;28;20421;-72
2021/04/16 00:45:18;;;;;;;0.50;0.50;;;20.50;39.80;;;;;;5008237;28;20419;-71
2021/04/16 00:47:44;;;;;;;0.60;0.60;;;20.50;39.80;;;;;;5008087;28;20686;-71
2021/04/16 00:50:13;;;;;;;0.90;0.80;;;20.50;39.90;;;;;;5009539;28;20447;-71
2021/04/16 00:52:39;;;;;;;2.10;0.80;;;20.50;39.70;;;;;;5007761;28;20443;-71
2021/04/16 00:55:06;;;;;;;1.50;0.65;;;20.50;39.90;;;;;;5008703;28;20424;-71
2021/04/16 00:57:32;;;;;;;0.50;0.50;;;20.50;39.80;;;;;;5008238;28;20504;-71
2021/04/16 00:59:59;;;;;;;0.60;0.60;;;20.50;40.00;;;;;;5007990;28;20418;-71
2021/04/16 01:02:25;;;;;;;0.70;0.70;;;20.50;39.80;;;;;;5004500;28;20832;-72
2021/04/16 01:04:52;;;;;;;0.70;0.70;;;20.50;40.00;;;;;;4989103;28;20421;-72
2021/04/16 01:07:18;;;;;;;0.60;0.60;;;20.50;40.00;;;;;;4982588;28;20421;-72
2021/04/16 01:09:45;;;;;;;0.60;0.60;;;20.50;39.90;;;;;;5008720;28;20416;-74
2021/04/16 01:12:11;;;;;;;0.60;0.60;;;20.50;39.90;;;;;;5001393;28;20436;-71
2021/04/16 01:14:38;;;;;;;1.30;0.70;;;20.50;39.70;;;;;;4983579;28;20408;-72
2021/04/16 01:17:06;;;;;;;0.70;0.70;;;20.50;39.90;;;;;;5008222;28;20423;-71
2021/04/16 01:19:35;;;;;;;0.80;0.70;;;20.50;39.70;;;;;;5001036;28;20427;-72
2021/04/16 01:22:03;;;;;;;0.60;0.60;;;20.50;39.70;;;;;;5016455;28;20427;-72
2021/04/16 01:24:30;;;;;;;0.50;0.50;;;20.50;39.90;;;;;;5000911;28;20423;-73
2021/04/16 01:26:56;;;;;;;0.60;0.60;;;20.50;39.80;;;;;;5007171;28;20427;-73
2021/04/16 01:29:23;;;;;;;1.30;0.60;;;20.50;39.90;;;;;;5006402;28;20414;-74
2021/04/16 01:31:49;;;;;;;0.80;0.50;;;20.50;39.80;;;;;;5005314;28;20486;-73
2021/04/16 01:34:16;;;;;;;0.70;0.70;;;20.50;40.00;;;;;;4980156;28;20414;-73
2021/04/16 01:36:42;;;;;;;0.70;0.60;;;20.50;40.10;;;;;;5003653;28;20421;-73
2021/04/16 01:39:09;;;;;;;0.70;0.70;;;20.50;40.80;;;;;;4995581;28;20750;-72
2021/04/16 01:41:36;;;;;;;0.70;0.70;;;20.60;39.80;;;;;;5003240;28;20983;-73
2021/04/16 01:44:04;;;;;;;0.50;0.50;;;20.60;39.80;;;;;;5000269;28;20420;-72
2021/04/16 01:46:39;;;;;;;0.60;0.60;;;20.60;39.80;;;;;;5002401;28;20430;-74
2021/04/16 01:49:05;;;;;;;0.60;0.60;;;20.50;39.70;;;;;;4988731;28;20885;-72
2021/04/16 01:51:33;;;;;;;1.70;0.70;;;20.50;39.70;;;;;;4999688;28;20787;-72
2021/04/16 01:54:04;;;;;;;0.60;0.60;;;20.50;39.70;;;;;;4985667;28;20434;-72
2021/04/16 01:56:30;;;;;;;0.80;0.80;;;20.50;39.80;;;;;;5004376;28;20446;-75
2021/04/16 01:58:57;;;;;;;0.60;0.60;;;20.50;39.70;;;;;;4982509;28;21595;-73
2021/04/16 02:01:24;;;;;;;0.60;0.60;;;20.50;39.60;;;;;;5002001;28;20838;-73
2021/04/16 02:03:50;;;;;;;0.82;0.82;;;20.50;39.70;;;;;;5002121;28;20441;-73
2021/04/16 02:06:16;;;;;;;0.60;0.60;;;20.50;39.60;;;;;;5008972;28;21207;-72
2021/04/16 02:08:43;;;;;;;1.60;0.70;;;20.50;39.80;;;;;;5007967;28;20419;-73
2021/04/16 02:11:09;;;;;;;1.20;0.63;;;20.50;39.70;;;;;;5007400;28;20409;-71
2021/04/16 02:13:35;;;;;;;0.90;0.70;;;20.50;39.80;;;;;;5001069;28;20473;-73
2021/04/16 02:16:02;;;;;;;0.60;0.60;;;20.50;39.80;;;;;;5011084;28;20442;-71
2021/04/16 02:18:28;;;;;;;0.60;0.60;;;20.50;39.70;;;;;;5006049;28;20419;-73
2021/04/16 02:20:54;;;;;;;0.60;0.60;;;20.50;39.70;;;;;;5006041;28;20438;-73
2021/04/16 02:23:20;;;;;;;0.60;0.60;;;20.50;39.90;;;;;;5006930;28;20419;-74
2021/04/16 02:25:47;;;;;;;0.68;0.65;;;20.50;39.80;;;;;;4994713;28;20421;-74
2021/04/16 02:28:13;;;;;;;1.73;0.60;;;20.50;39.70;;;;;;5006424;28;21837;-73
2021/04/16 02:30:39;;;;;;;0.60;0.60;;;20.50;39.90;;;;;;5015531;28;21031;-74
2021/04/16 02:33:06;;;;;;;1.50;0.70;;;20.50;39.70;;;;;;4979858;28;20415;-74
2021/04/16 02:35:32;;;;;;;0.70;0.70;;;20.60;39.60;;;;;;4989369;28;20415;-72
2021/04/16 02:37:58;;;;;;;0.70;0.55;;;20.60;39.60;;;;;;5007801;28;21610;-72
2021/04/16 02:40:25;;;;;;;0.60;0.60;;;20.50;39.60;;;;;;5005252;28;20436;-73
2021/04/16 02:42:53;;;;;;;1.00;0.60;;;20.50;39.50;;;;;;4997786;28;20423;-73
2021/04/16 02:45:20;;;;;;;2.50;0.80;;;20.50;39.50;;;;;;5018595;28;20621;-73
2021/04/16 02:47:46;;;;;;;0.80;0.60;;;20.50;39.80;;;;;;5005356;28;20490;-74
2021/04/16 02:50:15;;;;;;;0.70;0.70;;;20.50;39.80;;;;;;5006086;28;20901;-73
2021/04/16 02:52:41;;;;;;;0.50;0.50;;;20.50;39.70;;;;;;4993023;28;20417;-73
2021/04/16 02:55:11;;;;;;;0.60;0.55;;;20.50;39.70;;;;;;5002946;28;20777;-74
2021/04/16 02:57:37;;;;;;;0.40;0.40;;;20.50;39.80;;;;;;5005145;28;20421;-73
2021/04/16 03:00:05;;;;;;;0.50;0.50;;;20.50;39.70;;;;;;5006965;28;20412;-74
2021/04/16 03:02:31;;;;;;;0.60;0.60;;;20.50;39.70;;;;;;5000175;28;20422;-73
2021/04/16 03:04:57;;;;;;;0.60;0.60;;;20.60;39.80;;;;;;4993010;28;20425;-73
2021/04/16 03:07:24;;;;;;;0.73;0.73;;;20.60;39.80;;;;;;4988629;28;20449;-73
2021/04/16 03:09:50;;;;;;;0.60;0.60;;;20.60;39.30;;;;;;5007452;28;20414;-73
2021/04/16 03:12:17;;;;;;;0.70;0.70;;;20.60;39.10;;;;;;5005039;28;20423;-72
2021/04/16 03:14:43;;;;;;;0.65;0.60;;;20.70;39.20;;;;;;4998556;28;20438;-72
2021/04/16 03:17:09;;;;;;;0.90;0.60;;;20.70;38.90;;;;;;5012185;28;20420;-72
2021/04/16 03:19:35;;;;;;;0.55;0.55;;;20.70;38.50;;;;;;4994612;28;20432;-71
2021/04/16 03:22:02;;;;;;;1.00;0.70;;;20.80;39.40;;;;;;5017176;28;20415;-73
2021/04/16 03:24:29;;;;;;;0.60;0.60;;;20.80;38.50;;;;;;5002835;28;20778;-72
2021/04/16 03:26:55;;;;;;;0.80;0.60;;;20.80;38.50;;;;;;4997734;28;20478;-72
2021/04/16 03:29:21;;;;;;;3.40;0.70;;;20.70;38.50;;;;;;5003617;28;20442;-72
2021/04/16 03:31:47;;;;;;;0.82;0.80;;;20.80;38.60;;;;;;5004515;28;20408;-73
2021/04/16 03:34:13;;;;;;;0.60;0.60;;;20.80;38.60;;;;;;5004510;28;20952;-72
2021/04/16 03:36:39;;;;;;;1.40;0.70;;;20.80;38.60;;;;;;4988750;28;20423;-72
2021/04/16 03:39:06;;;;;;;0.50;0.50;;;20.80;38.60;;;;;;4972161;28;20417;-72
2021/04/16 03:41:33;;;;;;;0.67;0.60;;;20.80;38.70;;;;;;4992225;28;21474;-74
2021/04/16 03:43:59;;;;;;;0.80;0.60;;;20.80;38.60;;;;;;5003205;28;20445;-72
2021/04/16 03:46:25;;;;;;;0.70;0.60;;;20.80;38.50;;;;;;5002057;28;20449;-72
2021/04/16 03:48:51;;;;;;;0.73;0.73;;;20.80;38.60;;;;;;4980398;28;20564;-72
2021/04/16 03:51:17;;;;;;;0.67;0.60;;;20.80;38.60;;;;;;5001820;28;20415;-71
2021/04/16 03:53:43;;;;;;;0.82;0.80;;;20.80;38.60;;;;;;4997801;28;20500;-72
2021/04/16 03:56:10;;;;;;;0.68;0.68;;;20.80;38.60;;;;;;5004950;28;20431;-73
2021/04/16 03:58:37;;;;;;;0.57;0.50;;;20.80;38.50;;;;;;5012226;28;20403;-72
2021/04/16 04:01:03;;;;;;;0.77;0.70;;;20.80;38.50;;;;;;5033257;28;20403;-72
2021/04/16 04:03:29;;;;;;;0.82;0.57;;;20.80;39.40;;;;;;5024204;28;20408;-72
2021/04/16 04:05:56;;;;;;;1.10;0.70;;;20.70;38.70;;;;;;5009620;28;21535;-71
2021/04/16 04:08:22;;;;;;;0.70;0.70;;;20.70;38.50;;;;;;4997521;28;20413;-71
2021/04/16 04:10:48;;;;;;;0.70;0.70;;;20.70;38.50;;;;;;5004417;28;20526;-71
2021/04/16 04:13:14;;;;;;;0.70;0.70;;;20.70;38.80;;;;;;4999619;28;21195;-72
2021/04/16 04:15:41;;;;;;;0.65;0.65;;;20.70;38.50;;;;;;4994182;28;20497;-72
2021/04/16 04:18:07;;;;;;;1.60;0.57;;;20.80;38.60;;;;;;5004912;28;20479;-72
2021/04/16 04:20:34;;;;;;;0.60;0.60;;;20.80;38.60;;;;;;4988987;28;20436;-70
2021/04/16 04:23:01;;;;;;;1.50;0.80;;;20.80;38.60;;;;;;4985275;28;20512;-72
2021/04/16 04:25:29;;;;;;;0.90;0.77;;;20.80;38.60;;;;;;5012261;28;20405;-74
2021/04/16 04:27:55;;;;;;;1.67;0.70;;;20.80;38.50;;;;;;5015701;28;20622;-73
2021/04/16 04:30:23;;;;;;;0.68;0.68;;;20.80;38.60;;;;;;5001101;28;20482;-73
2021/04/16 04:32:50;;;;;;;0.80;0.80;;;20.80;38.60;;;;;;5001286;28;20436;-73
2021/04/16 04:35:16;;;;;;;1.10;0.80;;;20.80;39.40;;;;;;5000360;28;20420;-73
2021/04/16 04:37:42;;;;;;;1.00;0.60;;;20.90;39.40;;;;;;5006989;28;20413;-73
2021/04/16 04:40:09;;;;;;;1.00;1.00;;;20.90;38.60;;;;;;5013253;28;20419;-72
2021/04/16 04:42:35;;;;;;;2.13;0.60;;;20.90;38.70;;;;;;5006862;28;20833;-73
2021/04/16 04:45:01;;;;;;;0.80;0.73;;;20.90;38.70;;;;;;5005890;28;20586;-72
2021/04/16 04:47:29;;;;;;;0.70;0.70;;;21.00;38.70;;;;;;5004134;28;20428;-73
2021/04/16 04:49:56;;;;;;;0.90;0.80;;;21.00;38.70;;;;;;5014343;28;20410;-73
2021/04/16 04:52:27;;;;;;;1.90;0.60;;;21.00;38.70;;;;;;5008706;28;20514;-73
2021/04/16 04:54:54;;;;;;;2.10;0.80;;;21.00;38.70;;;;;;5003506;28;20430;-73
2021/04/16 04:57:21;;;;;;;0.90;0.80;;;21.00;38.70;;;;;;5008250;28;20854;-73
2021/04/16 04:59:48;;;;;;;1.10;1.00;;;20.90;38.60;;;;;;5007417;28;20417;-72
2021/04/16 05:02:16;;;;;;;0.80;0.80;;;20.90;38.60;;;;;;5005996;28;21307;-73
2021/04/16 05:04:42;;;;;;;0.80;0.80;;;20.90;38.70;;;;;;5008592;28;20421;-73
2021/04/16 05:07:09;;;;;;;0.90;0.90;;;20.90;38.70;;;;;;5012347;28;20416;-73
2021/04/16 05:09:35;;;;;;;0.80;0.70;;;20.90;38.70;;;;;;4990785;28;20413;-74
2021/04/16 05:12:01;;;;;;;0.80;0.80;;;20.90;38.70;;;;;;5003653;28;20447;-73
2021/04/16 05:14:27;;;;;;;1.00;0.80;;;20.90;38.60;;;;;;5021621;28;20413;-73
2021/04/16 05:16:53;;;;;;;1.38;0.93;;;20.90;38.70;;;;;;4992871;28;20427;-72
2021/04/16 05:19:20;;;;;;;2.10;0.80;;;20.90;38.60;;;;;;5009961;28;20415;-73
2021/04/16 05:21:46;;;;;;;2.10;0.90;;;20.90;38.70;;;;;;4997610;28;21370;-72
2021/04/16 05:24:13;;;;;;;1.00;1.00;;;20.90;39.50;;;;;;5010530;28;20771;-73
2021/04/16 05:26:39;;;;;;;1.60;0.82;;;20.90;38.60;;;;;;5001432;28;20436;-72
2021/04/16 05:29:06;;;;;;;2.70;0.90;;;20.90;38.60;;;;;;5006574;28;20426;-72
2021/04/16 05:31:32;;;;;;;1.20;0.70;;;20.90;38.70;;;;;;5007494;28;20419;-72
2021/04/16 05:33:58;;;;;;;1.50;0.90;;;20.90;38.70;;;;;;5007048;28;20424;-73
2021/04/16 05:36:25;;;;;;;1.10;1.00;;;20.90;38.60;;;;;;5007357;28;20426;-72
2021/04/16 05:38:51;;;;;;;0.90;0.90;;;20.90;38.70;;;;;;4997368;28;20958;-73
2021/04/16 05:41:18;;;;;;;1.60;1.17;;;21.00;38.70;;;;;;4998270;28;20917;-71
2021/04/16 05:43:44;;;;;;;2.15;1.20;;;21.00;38.80;;;;;;5008209;28;20911;-73
2021/04/16 05:46:10;;;;;;;0.80;0.80;;;21.00;38.80;;;;;;4996962;28;20481;-73
2021/04/16 05:48:36;;;;;;;1.70;0.90;;;21.00;38.70;;;;;;5003365;28;20420;-73
2021/04/16 05:51:03;;;;;;;1.10;1.00;;;21.10;38.80;;;;;;4990457;28;20424;-73
2021/04/16 05:53:29;;;;;;;1.00;0.80;;;21.00;39.50;;;;;;4999015;28;20922;-71
2021/04/16 05:55:55;;;;;;;1.10;1.00;;;21.00;38.70;;;;;;5005197;28;20436;-73
2021/04/16 05:58:22;;;;;;;1.38;1.30;;;21.00;38.70;;;;;;4997121;28;20423;-73
2021/04/16 06:00:48;;;;;;;1.10;1.00;;;21.00;38.70;;;;;;5000310;28;20423;-73
2021/04/16 06:03:14;;;;;;;1.20;1.10;;;21.00;38.70;;;;;;5007328;28;20951;-73
2021/04/16 06:05:40;;;;;;;1.30;1.20;;;21.00;38.70;;;;;;4996158;28;20415;-72
2021/04/16 06:08:07;;;;;;;1.40;1.30;;;21.00;38.70;;;;;;5007326;28;21246;-73
2021/04/16 06:10:33;;;;;;;1.00;0.88;;;21.00;38.70;;;;;;5012528;28;21074;-72
2021/04/16 06:12:59;;;;;;;1.92;1.02;;;21.00;38.70;;;;;;5006763;28;20430;-72
2021/04/16 06:15:27;;;;;;;0.80;0.80;;;21.10;38.80;;;;;;4997688;28;20445;-73
2021/04/16 06:17:53;;;;;;;3.65;1.10;;;21.10;38.80;;;;;;5010324;28;20429;-73
2021/04/16 06:20:21;;;;;;;0.90;0.90;;;21.10;38.80;;;;;;5011613;28;20407;-72
2021/04/16 06:22:48;;;;;;;1.00;0.90;;;21.00;38.70;;;;;;5006980;28;20420;-74
2021/04/16 06:25:16;;;;;;;1.00;1.00;;;21.00;38.70;;;;;;5010303;28;20411;-74
2021/04/16 06:27:42;;;;;;;1.80;0.80;;;21.00;38.70;;;;;;5006548;28;20403;-73
2021/04/16 06:30:09;;;;;;;1.00;1.00;;;21.00;38.70;;;;;;5004210;28;20415;-73
2021/04/16 06:32:36;;;;;;;0.90;0.90;;;21.00;38.70;;;;;;5024646;28;20401;-74
2021/04/16 06:35:03;;;;;;;1.30;1.20;;;21.00;38.70;;;;;;5030333;28;20414;-73
2021/04/16 06:37:29;;;;;;;1.88;1.02;;;20.90;38.60;;;;;;5000821;28;20423;-73
2021/04/16 06:39:55;;;;;;;1.30;0.90;;;20.90;38.70;;;;;;5015787;28;20411;-71
2021/04/16 06:42:23;;;;;;;1.30;0.90;;;20.90;38.70;;;;;;4970788;28;20428;-72
2021/04/16 06:44:49;;;;;;;1.10;1.00;;;21.00;38.70;;;;;;5005012;28;20417;-72
2021/04/16 06:47:19;;;;;;;1.00;1.00;;;21.00;38.70;;;;;;5009869;28;20430;-71
2021/04/16 06:49:46;;;;;;;1.00;1.00;;;21.00;38.70;;;;;;5004573;28;20420;-72
2021/04/16 06:52:14;;;;;;;1.33;0.90;;;21.00;38.70;;;;;;5004092;28;20465;-71
2021/04/16 06:54:47;;;;;;;0.90;0.90;;;21.00;38.80;;;;;;5010766;28;20420;-72
2021/04/16 06:57:22;;;;;;;0.75;0.75;;;21.00;38.70;;;;;;5002034;28;20432;-72
2021/04/16 06:59:49;;;;;;;1.05;0.80;;;21.00;38.70;;;;;;4999200;28;20407;-73
2021/04/16 07:02:16;;;;;;;0.80;0.80;;;21.00;38.80;;;;;;5006332;28;20421;-73
2021/04/16 07:04:43;;;;;;;1.43;1.00;;;21.00;38.80;;;;;;5004376;28;20488;-72
2021/04/16 07:07:16;;;;;;;1.15;0.93;;;20.90;38.60;;;;;;5007213;28;20477;-70
2021/04/16 07:09:43;;;;;;;2.10;1.10;;;20.90;38.70;;;;;;5003450;28;20518;-72
2021/04/16 07:12:13;;;;;;;0.85;0.82;;;20.90;38.70;;;;;;5004193;28;20424;-72
2021/04/16 07:14:41;;;;;;;1.40;0.88;;;20.80;38.60;;;;;;5004649;28;20405;-72
2021/04/16 07:17:08;;;;;;;0.90;0.90;;;20.80;38.60;;;;;;4995061;28;20437;-72
2021/04/16 07:19:34;;;;;;;1.13;1.02;;;20.80;38.90;;;;;;5010548;28;20504;-73
2021/04/16 07:22:02;;;;;;;1.70;1.00;;;20.80;39.00;;;;;;5001186;28;20926;-73
2021/04/16 07:24:29;;;;;;;1.20;1.10;;;20.80;39.10;;;;;;5010601;28;20417;-73
2021/04/16 07:26:57;;;;;;;0.93;0.93;;;20.80;39.10;;;;;;4996118;28;20428;-73
2021/04/16 07:29:39;;;;;;;1.50;1.00;;;20.80;39.20;;;;;;5016769;28;20533;-72
2021/04/16 07:32:06;;;;;;;1.15;1.15;;;20.90;39.10;;;;;;4999054;28;20438;-72
2021/04/16 07:34:34;;;;;;;0.88;0.88;;;20.90;39.20;;;;;;4997392;28;21049;-74
2021/04/16 07:37:17;;;;;;;0.80;0.80;;;20.90;39.20;;;;;;5011613;28;20419;-72
2021/04/16 07:39:47;;;;;;;0.90;0.90;;;20.90;39.20;;;;;;5004626;28;20413;-72
2021/04/16 07:42:21;;;;;;;1.98;0.95;;;20.80;39.30;;;;;;4995111;28;20416;-73
2021/04/16 07:45:03;;;;;;;0.73;0.73;;;20.80;39.30;;;;;;5006230;28;20401;-72
2021/04/16 07:47:30;;;;;;;1.30;0.80;;;20.70;39.30;;;;;;5003051;28;20407;-72
2021/04/16 07:49:57;;;;;;;1.02;0.75;;;20.80;39.50;;;;;;5007627;28;20410;-71
2021/04/16 07:52:26;;;;;;;0.98;0.93;;;20.80;39.50;;;;;;4985458;28;20403;-72
2021/04/16 07:55:18;;;;;;;0.80;0.73;;;20.80;39.40;;;;;;5008331;28;20411;-71
2021/04/16 07:57:45;;;;;;;0.85;0.85;;;20.70;39.40;;;;;;5006170;28;20413;-73
2021/04/16 08:00:23;;;;;;;1.30;0.80;;;20.70;39.50;;;;;;5012608;28;20423;-73
2021/04/16 08:02:53;;;;;;;1.00;0.90;;;20.70;40.20;;;;;;5006136;28;20515;-73
2021/04/16 08:05:29;;;;;;;0.80;0.70;;;20.70;39.50;;;;;;5002434;28;20457;-73
2021/04/16 08:08:06;;;;;;;0.90;0.90;;;20.70;39.50;;;;;;5002712;28;20422;-72
2021/04/16 08:10:34;;;;;;;0.93;0.83;;;20.70;39.50;;;;;;5007087;28;20469;-72
2021/04/16 08:13:05;;;;;;;0.90;0.90;;;20.70;39.50;;;;;;5005807;28;20407;-73
2021/04/16 08:15:31;;;;;;;1.58;0.80;;;20.70;39.60;;;;;;5002102;28;20485;-73
2021/04/16 08:18:07;;;;;;;1.10;0.90;;;20.70;39.80;;;;;;5017508;28;20445;-72
2021/04/16 08:20:36;;;;;;;1.08;0.90;;;20.70;39.80;;;;;;5004480;28;20909;-72
2021/04/16 08:23:02;;;;;;;0.90;0.80;;;20.70;39.80;;;;;;5004057;28;20460;-72
2021/04/16 08:25:35;;;;;;;0.80;0.80;;;20.70;39.60;;;;;;5016215;28;20478;-71
2021/04/16 08:28:03;;;;;;;0.80;0.80;;;20.80;39.60;;;;;;5010580;28;20444;-72
2021/04/16 08:30:36;;;;;;;0.80;0.80;;;20.80;39.60;;;;;;5004747;28;20776;-72
2021/04/16 08:33:06;;;;;;;0.80;0.80;;;20.80;39.50;;;;;;5004444;28;20423;-73
2021/04/16 08:35:36;;;;;;;0.70;0.70;;;20.80;39.40;;;;;;5007542;28;20849;-72
2021/04/16 08:38:04;;;;;;;0.75;0.70;;;20.80;39.60;;;;;;5007667;28;20590;-74
2021/04/16 08:40:33;;;;;;;0.87;0.70;;;20.80;39.70;;;;;;5003237;28;21003;-71
2021/04/16 08:43:00;;;;;;;0.80;0.70;;;20.70;39.60;;;;;;5011055;28;20442;-72
2021/04/16 08:45:27;;;;;;;1.50;0.60;;;20.70;39.60;;;;;;5006880;28;20411;-71
2021/04/16 08:47:54;;;;;;;1.00;1.00;;;20.70;39.80;;;;;;5006533;28;20414;-72
2021/04/16 08:50:22;;;;;;;0.93;0.82;;;20.70;39.60;;;;;;5008397;28;20415;-71
2021/04/16 08:52:49;;;;;;;0.73;0.70;;;20.80;39.70;;;;;;5004706;28;20802;-72
2021/04/16 08:55:21;;;;;;;2.30;0.60;;;20.80;39.40;;;;;;5007407;28;20428;-72
2021/04/16 08:57:51;;;;;;;0.60;0.60;;;20.80;39.30;;;;;;5006466;28;20428;-72
2021/04/16 09:00:20;;;;;;;0.60;0.60;;;20.90;39.20;;;;;;5007034;28;20417;-72
2021/04/16 09:02:48;;;;;;;0.60;0.60;;;20.90;39.30;;;;;;5006969;28;20412;-73
2021/04/16 09:05:15;;;;;;;0.70;0.70;;;20.90;39.30;;;;;;5005828;28;20428;-73
2021/04/16 09:07:42;;;;;;;1.60;0.60;;;20.80;39.30;;;;;;5008039;28;20442;-71
2021/04/16 09:10:38;;;;;;;0.73;0.73;;;20.80;39.50;;;;;;4996789;28;22521;-71
2021/04/16 09:13:05;;;;;;;0.73;0.73;;;20.80;39.60;;;;;;4998633;28;20454;-73
2021/04/16 09:15:50;;;;;;;0.70;0.70;;;20.70;39.70;;;;;;5004228;28;20914;-71
2021/04/16 09:18:34;;;;;;;0.60;0.60;;;20.70;39.70;;;;;;5002250;28;20420;-72
2021/04/16 09:21:25;;;;;;;0.80;0.60;;;20.60;39.60;;;;;;5003821;28;20543;-71
2021/04/16 09:24:05;;;;;;;0.80;0.80;;;20.70;39.60;;;;;;4984841;28;20862;-75
2021/04/16 09:26:54;;;;;;;0.60;0.60;;;20.70;39.80;;;;;;5001528;28;20551;-71
2021/04/16 09:29:34;;;;;;;0.80;0.80;;;20.70;39.70;;;;;;4960794;28;20422;-71
2021/04/16 09:32:02;;;;;;;1.00;0.80;;;20.70;39.70;;;;;;4982881;28;20772;-72
2021/04/16 09:34:29;;;;;;;0.75;0.60;;;20.70;39.90;;;;;;5007750;28;20555;-73
2021/04/16 09:37:16;;;;;;;0.70;0.60;;;20.70;39.90;;;;;;5003298;28;20756;-71
2021/04/16 09:39:46;;;;;;;0.90;0.50;;;20.70;39.70;;;;;;4996141;28;20513;-72
2021/04/16 09:42:37;;;;;;;0.90;0.90;;;20.80;39.60;;;;;;5008618;28;20424;-73
2021/04/16 09:45:05;;;;;;;0.70;0.60;;;20.80;39.40;;;;;;4980764;28;20412;-73
2021/04/16 09:47:50;;;;;;;0.70;0.57;;;20.80;39.30;;;;;;4990067;28;20432;-72
2021/04/16 09:50:31;;;;;;;0.70;0.60;;;20.90;39.30;;;;;;5006229;28;20600;-72
2021/04/16 09:53:21;;;;;;;0.60;0.60;;;20.90;39.10;;;;;;4990699;28;20414;-72
2021/04/16 09:56:25;;;;;;;0.70;0.70;;;20.90;39.00;;;;;;5004919;28;21035;-72
2021/04/16 09:59:28;;;;;;;0.50;0.50;;;21.00;39.10;;;;;;5000197;28;21097;-73
2021/04/16 10:02:24;;;;;;;0.80;0.60;;;21.00;38.80;;;;;;5008569;28;20807;-71
2021/04/16 10:04:59;;;;;;;1.00;0.50;;;21.00;38.80;;;;;;5002177;28;20429;-72
2021/04/16 10:07:40;;;;;;;0.60;0.60;;;20.90;38.90;;;;;;5001038;28;20403;-72
2021/04/16 10:10:13;;;;;;;0.70;0.70;;;20.90;38.80;;;;;;5012499;28;20427;-71
2021/04/16 10:12:40;;;;;;;0.60;0.60;;;20.90;39.20;;;;;;5002771;28;20503;-73
2021/04/16 10:15:17;;;;;;;0.60;0.60;;;20.80;39.30;;;;;;5006534;28;20422;-74
2021/04/16 10:17:53;;;;;;;0.70;0.60;;;20.80;39.50;;;;;;4983938;28;20849;-73
2021/04/16 10:20:20;;;;;;;0.90;0.50;;;20.80;39.80;;;;;;4999251;28;20407;-73
2021/04/16 10:22:46;;;;;;;0.60;0.60;;;20.70;39.80;;;;;;5007593;28;20846;-72
2021/04/16 12:40:01;;;;;;;0.40;0.40;;;21.00;39.20;;;;;;5003230;28;20487;-73
2021/04/16 12:42:27;;;;;;;0.40;0.40;;;21.00;39.60;;;;;;5006709;28;20981;-73
2021/04/16 12:44:54;;;;;;;0.50;0.50;;;20.90;39.50;;;;;;5006642;28;21005;-73
2021/04/16 12:47:23;;;;;;;0.90;0.50;;;20.90;39.60;;;;;;5007765;28;20425;-73
2021/04/16 12:49:50;;;;;;;0.57;0.50;;;20.90;39.70;;;;;;5006350;28;20424;-72
2021/04/16 12:52:17;;;;;;;0.40;0.40;;;20.80;39.80;;;;;;5008257;28;20420;-73
2021/04/16 12:54:48;;;;;;;0.50;0.50;;;20.80;39.60;;;;;;5008445;28;20420;-73
2021/04/16 12:57:16;;;;;;;0.70;0.50;;;20.80;39.80;;;;;;5004807;28;20421;-73
2021/04/16 12:59:42;;;;;;;0.50;0.50;;;20.80;39.80;;;;;;4998753;28;20500;-72
2021/04/16 13:02:09;;;;;;;0.50;0.50;;;20.90;39.80;;;;;;5006593;28;20425;-73
2021/04/16 13:04:40;;;;;;;1.00;0.50;;;20.90;39.70;;;;;;5010036;28;20412;-73
2021/04/16 13:07:07;;;;;;;0.50;0.50;;;20.90;39.70;;;;;;4996762;28;20427;-73
2021/04/16 13:09:33;;;;;;;0.50;0.50;;;21.00;39.60;;;;;;4988934;28;20423;-73
2021/04/16 13:11:59;;;;;;;0.40;0.40;;;21.00;39.60;;;;;;5007754;28;20435;-73
2021/04/16 13:14:25;;;;;;;0.50;0.50;;;21.00;39.70;;;;;;4993292;28;20864;-73
2021/04/16 13:16:52;;;;;;;0.70;0.43;;;21.00;39.70;;;;;;4999361;28;20415;-73
2021/04/16 13:19:22;;;;;;;0.52;0.40;;;20.90;39.50;;;;;;4997655;28;20510;-72
2021/04/16 13:21:48;;;;;;;0.80;0.50;;;20.90;39.80;;;;;;4998764;28;21101;-72
2021/04/16 13:24:15;;;;;;;0.47;0.40;;;20.90;40.10;;;;;;5014579;28;20422;-72
2021/04/16 13:26:41;;;;;;;0.60;0.50;;;20.80;39.90;;;;;;5003592;28;21002;-73
2021/04/16 13:29:07;;;;;;;0.40;0.40;;;20.80;40.10;;;;;;5004822;28;20428;-73
2021/04/16 13:31:35;;;;;;;0.53;0.50;;;20.80;40.20;;;;;;5009562;28;20416;-72
2021/04/16 13:34:01;;;;;;;0.50;0.50;;;20.80;40.10;;;;;;5006613;28;20427;-72
2021/04/16 13:36:29;;;;;;;0.60;0.50;;;20.80;39.70;;;;;;5005537;28;20403;-73
2021/04/16 13:38:55;;;;;;;0.60;0.50;;;20.70;40.10;;;;;;5000142;28;20437;-73
2021/04/16 13:41:22;;;;;;;0.60;0.40;;;20.70;40.10;;;;;;5005931;28;20441;-72
2021/04/16 13:43:49;;;;;;;0.70;0.60;;;20.70;40.10;;;;;;5007212;28;20995;-72
2021/04/16 13:46:16;;;;;;;0.50;0.50;;;20.80;40.30;;;;;;5005946;28;20420;-73
2021/04/16 13:48:43;;;;;;;0.50;0.45;;;20.70;40.20;;;;;;5001436;28;20436;-73
2021/04/16 13:51:09;;;;;;;0.90;0.60;;;20.70;40.30;;;;;;5004265;28;20448;-72
2021/04/16 13:53:35;;;;;;;0.50;0.50;;;20.70;40.30;;;;;;5005851;28;20430;-71
2021/04/16 13:56:01;;;;;;;0.50;0.50;;;20.80;41.00;;;;;;5007509;28;20505;-71
2021/04/16 13:58:28;;;;;;;0.90;0.70;;;20.80;40.20;;;;;;4996098;28;20512;-73
2021/04/16 14:00:54;;;;;;;0.60;0.40;;;20.80;40.10;;;;;;5028424;28;20428;-74
2021/04/16 14:03:25;;;;;;;0.60;0.40;;;20.80;40.10;;;;;;5021751;28;20401;-73
2021/04/16 14:05:52;;;;;;;1.70;0.55;;;20.90;40.00;;;;;;5016694;28;20425;-73
2021/04/16 14:08:24;;;;;;;0.60;0.52;;;20.90;39.80;;;;;;4997706;28;20418;-72
2021/04/16 14:10:50;;;;;;;0.40;0.40;;;20.90;39.70;;;;;;5004502;28;20428;-72
2021/04/16 14:13:16;;;;;;;0.50;0.40;;;21.00;39.60;;;;;;5006820;28;20415;-72
2021/04/16 14:15:43;;;;;;;0.50;0.40;;;21.00;39.70;;;;;;4988385;28;20413;-73
2021/04/16 14:18:09;;;;;;;0.60;0.60;;;21.00;39.80;;;;;;5001982;28;20463;-73
2021/04/16 14:20:37;;;;;;;0.50;0.50;;;21.00;39.70;;;;;;4991547;28;20415;-73
2021/04/16 14:23:04;;;;;;;0.60;0.50;;;21.00;39.70;;;;;;5000825;28;20421;-74
2021/04/16 14:25:32;;;;;;;0.50;0.40;;;21.00;39.70;;;;;;4988125;28;20438;-73
2021/04/16 14:27:58;;;;;;;1.08;0.50;;;21.00;39.70;;;;;;5003050;28;20434;-74
2021/04/16 14:30:25;;;;;;;0.82;0.50;;;21.10;39.40;;;;;;5005273;28;20418;-73
2021/04/16 14:32:53;;;;;;;0.50;0.50;;;21.10;39.20;;;;;;5001820;28;21330;-73
2021/04/16 14:35:20;;;;;;;0.43;0.40;;;21.20;38.90;;;;;;5014224;28;20459;-73
2021/04/16 14:37:46;;;;;;;1.30;0.40;;;21.20;38.90;;;;;;5004644;28;20440;-73
2021/04/16 14:40:13;;;;;;;0.50;0.50;;;21.20;38.90;;;;;;4989506;28;20789;-73
2021/04/16 14:42:40;;;;;;;0.50;0.50;;;21.20;38.90;;;;;;5007849;28;21530;-73
2021/04/16 14:45:08;;;;;;;0.50;0.40;;;21.10;39.40;;;;;;5005069;28;20408;-73
2021/04/16 14:47:34;;;;;;;0.50;0.50;;;21.10;39.40;;;;;;5001696;28;20435;-72
2021/04/16 14:50:01;;;;;;;0.40;0.40;;;21.10;39.60;;;;;;5003150;28;20505;-73
2021/04/16 14:52:27;;;;;;;1.50;0.50;;;21.00;39.60;;;;;;4999633;28;20895;-73
2021/04/16 14:54:55;;;;;;;0.60;0.40;;;21.00;39.80;;;;;;5005333;28;20420;-72
2021/04/16 14:57:24;;;;;;;0.47;0.40;;;20.90;39.80;;;;;;5005911;28;20950;-73
2021/04/16 14:59:50;;;;;;;0.70;0.60;;;20.90;39.80;;;;;;5007919;28;20419;-73
2021/04/16 15:02:16;;;;;;;0.45;0.45;;;21.00;39.70;;;;;;4981182;28;20424;-73
2021/04/16 15:04:42;;;;;;;0.50;0.50;;;21.00;39.50;;;;;;5000992;28;20799;-73
2021/04/16 15:07:09;;;;;;;0.57;0.57;;;21.10;39.30;;;;;;5007996;28;20419;-72
2021/04/16 15:09:38;;;;;;;1.48;0.40;;;21.10;38.80;;;;;;4977117;28;20501;-73